createdAt,value
2023-01-26T00:00:14.151Z,9.90
2023-01-26T00:02:43.975Z,10.87
2023-01-26T00:05:12.409Z,10.13
2023-01-26T00:07:45.210Z,10.20
2023-01-26T00:10:15.094Z,11.10
2023-01-26T00:12:43.498Z,10.80
2023-01-26T00:15:12.436Z,10.63
2023-01-26T00:17:40.850Z,11.77
2023-01-26T00:20:13.121Z,10.90
2023-01-26T00:22:43.610Z,12.17
2023-01-26T00:25:12.621Z,12.00
2023-01-26T00:27:41.084Z,11.97
2023-01-26T00:30:11.483Z,11.60
2023-01-26T00:32:40.348Z,11.17
2023-01-26T00:35:10.918Z,12.37
2023-01-26T00:37:39.510Z,11.87
2023-01-26T00:40:09.386Z,11.30
2023-01-26T00:42:39.857Z,10.77
2023-01-26T00:45:09.546Z,11.13
2023-01-26T00:47:37.957Z,11.87
2023-01-26T00:50:07.801Z,12.83
2023-01-26T00:52:37.753Z,12.10
2023-01-26T00:55:07.060Z,12.27
2023-01-26T00:57:35.561Z,12.20
2023-01-26T01:00:07.747Z,12.50
2023-01-26T01:02:36.191Z,12.27
2023-01-26T01:05:05.035Z,10.80
2023-01-26T01:07:33.390Z,10.83
2023-01-26T01:10:03.203Z,10.87
2023-01-26T01:12:31.663Z,11.67
2023-01-26T01:15:00.392Z,11.63
2023-01-26T01:17:28.943Z,10.60
2023-01-26T01:19:57.410Z,11.90
2023-01-26T01:22:26.032Z,12.10
2023-01-26T01:24:54.469Z,12.33
2023-01-26T01:27:24.423Z,11.73
2023-01-26T01:29:53.304Z,12.70
2023-01-26T01:32:22.001Z,12.40
2023-01-26T01:34:51.020Z,13.40
2023-01-26T01:37:19.790Z,12.00
2023-01-26T01:39:50.252Z,11.33
2023-01-26T01:42:18.621Z,12.27
2023-01-26T01:45:27.152Z,12.30
2023-01-26T01:47:58.132Z,11.17
2023-01-26T01:50:27.602Z,12.43
2023-01-26T01:52:57.264Z,12.30
2023-01-26T01:55:26.449Z,10.83
2023-01-26T01:58:00.297Z,11.40
2023-01-26T02:00:31.580Z,14.17
2023-01-26T02:03:14.721Z,13.67
2023-01-26T02:05:53.930Z,13.07
2023-01-26T02:08:27.196Z,11.33
2023-01-26T02:11:01.276Z,12.63
2023-01-26T02:13:31.751Z,12.60
2023-01-26T02:16:02.307Z,12.07
2023-01-26T02:18:32.157Z,12.90
2023-01-26T02:21:04.064Z,12.10
2023-01-26T02:23:47.408Z,13.67
2023-01-26T02:26:19.818Z,15.10
2023-01-26T02:28:49.204Z,12.87
2023-01-26T02:31:19.346Z,13.93
2023-01-26T02:33:49.563Z,14.03
2023-01-26T02:36:23.068Z,13.63
2023-01-26T02:39:19.140Z,14.70
2023-01-26T02:42:08.419Z,13.03
2023-01-26T02:44:37.696Z,13.47
2023-01-26T02:47:14.090Z,14.33
2023-01-26T02:49:50.454Z,14.00
2023-01-26T02:52:25.865Z,14.97
2023-01-26T02:55:20.088Z,13.00
2023-01-26T02:57:51.910Z,14.00
2023-01-26T03:00:22.435Z,12.03
2023-01-26T03:02:54.684Z,11.70
2023-01-26T03:05:23.065Z,12.40
2023-01-26T03:07:52.575Z,12.37
2023-01-26T03:10:24.255Z,12.70
2023-01-26T03:12:55.083Z,13.10
2023-01-26T03:15:41.083Z,11.90
2023-01-26T03:18:27.064Z,11.33
2023-01-26T03:21:24.480Z,11.90
2023-01-26T03:24:11.258Z,11.47
2023-01-26T03:26:58.773Z,10.27
2023-01-26T03:29:30.228Z,11.13
2023-01-26T03:32:00.875Z,10.47
2023-01-26T03:34:30.743Z,10.67
2023-01-26T03:36:59.804Z,9.87
2023-01-26T03:39:52.033Z,10.63
2023-01-26T03:42:38.130Z,10.07
2023-01-26T03:45:27.058Z,10.70
2023-01-26T03:48:22.025Z,9.97
2023-01-26T03:51:08.001Z,10.07
2023-01-26T03:53:54.104Z,10.60
2023-01-26T03:56:24.498Z,9.07
2023-01-26T03:58:58.612Z,8.80
2023-01-26T04:01:33.136Z,8.60
2023-01-26T04:04:20.015Z,8.70
2023-01-26T04:07:08.727Z,9.70
2023-01-26T04:09:40.582Z,8.57
2023-01-26T04:12:11.926Z,9.10
2023-01-26T04:15:07.618Z,10.07
2023-01-26T04:17:54.603Z,9.10
2023-01-26T04:20:40.749Z,8.10
2023-01-26T04:23:09.140Z,10.57
2023-01-26T04:25:38.316Z,11.33
2023-01-26T04:28:06.795Z,12.40
2023-01-26T04:30:35.348Z,14.20
2023-01-26T04:33:05.701Z,14.77
2023-01-26T04:35:35.261Z,14.63
2023-01-26T04:38:03.853Z,13.80
2023-01-26T04:40:32.244Z,14.93
2023-01-26T04:43:00.586Z,13.47
2023-01-26T04:45:29.471Z,12.80
2023-01-26T04:47:58.067Z,13.90
2023-01-26T04:50:28.974Z,12.53
2023-01-26T04:52:57.359Z,11.30
2023-01-26T04:55:25.830Z,12.17
2023-01-26T04:57:54.462Z,12.13
2023-01-26T05:00:23.205Z,11.40
2023-01-26T05:02:54.392Z,12.77
2023-01-26T05:05:22.788Z,11.90
2023-01-26T05:07:53.341Z,12.20
2023-01-26T05:10:23.202Z,12.63
2023-01-26T05:12:59.865Z,11.03
2023-01-26T05:15:28.309Z,11.20
2023-01-26T05:18:15.494Z,10.10
2023-01-26T05:20:55.599Z,10.87
2023-01-26T05:23:29.873Z,10.63
2023-01-26T05:26:16.425Z,10.97
2023-01-26T05:28:57.995Z,10.33
2023-01-26T05:31:27.447Z,9.37
2023-01-26T05:33:57.065Z,9.20
2023-01-26T05:36:26.094Z,9.30
2023-01-26T05:38:56.108Z,9.23
2023-01-26T05:41:27.192Z,10.00
2023-01-26T05:44:18.698Z,8.63
2023-01-26T05:46:51.508Z,8.87
2023-01-26T05:49:19.951Z,8.37
2023-01-26T05:51:48.579Z,8.50
2023-01-26T05:54:18.725Z,8.20
2023-01-26T05:56:47.586Z,7.40
2023-01-26T05:59:16.763Z,7.03
2023-01-26T06:01:45.403Z,7.20
2023-01-26T06:04:13.991Z,7.57
2023-01-26T06:06:54.688Z,8.77
2023-01-26T06:09:34.575Z,7.60
2023-01-26T06:12:18.901Z,8.50
2023-01-26T06:15:09.475Z,7.93
2023-01-26T06:17:41.608Z,7.87
2023-01-26T06:20:14.714Z,7.33
2023-01-26T06:22:46.763Z,7.73
2023-01-26T06:25:16.874Z,7.77
2023-01-26T06:27:45.212Z,7.97
2023-01-26T06:30:25.684Z,6.97
2023-01-26T06:32:56.417Z,7.97
2023-01-26T06:35:26.531Z,7.67
2023-01-26T06:37:57.460Z,9.20
2023-01-26T06:40:27.247Z,9.03
2023-01-26T06:42:55.835Z,7.50
2023-01-26T06:45:24.366Z,7.40
2023-01-26T06:47:53.716Z,7.57
2023-01-26T06:50:27.587Z,7.63
2023-01-26T06:52:57.626Z,7.60
2023-01-26T06:55:41.780Z,7.73
2023-01-26T06:58:31.096Z,7.60
2023-01-26T07:01:08.746Z,7.60
2023-01-26T07:03:37.114Z,7.27
2023-01-26T07:06:07.968Z,8.10
2023-01-26T07:08:36.331Z,7.70
2023-01-26T07:11:09.033Z,6.73
2023-01-26T07:13:37.665Z,7.97
2023-01-26T07:16:09.146Z,8.03
2023-01-26T07:18:38.276Z,6.80
2023-01-26T07:21:09.250Z,8.63
2023-01-26T07:23:37.640Z,7.43
2023-01-26T07:26:07.888Z,6.50
2023-01-26T07:28:37.564Z,6.60
2023-01-26T07:31:08.597Z,7.83
2023-01-26T07:33:38.318Z,7.23
2023-01-26T07:36:07.527Z,6.50
2023-01-26T07:38:36.312Z,6.43
2023-01-26T07:41:10.701Z,6.73
2023-01-26T07:43:40.059Z,6.50
2023-01-26T07:46:12.266Z,6.83
2023-01-26T07:48:41.748Z,6.23
2023-01-26T07:51:11.212Z,7.17
2023-01-26T07:53:42.274Z,6.97
2023-01-26T07:56:14.913Z,7.10
2023-01-26T07:58:44.013Z,7.40
2023-01-26T08:01:15.679Z,7.47
2023-01-26T08:03:46.009Z,7.80
2023-01-26T08:06:15.703Z,7.77
2023-01-26T08:08:44.609Z,7.03
2023-01-26T08:11:14.358Z,7.93
2023-01-26T08:13:42.658Z,6.93
2023-01-26T08:16:13.197Z,7.10
2023-01-26T08:18:43.474Z,7.13
2023-01-26T08:21:13.383Z,8.33
2023-01-26T08:23:42.318Z,7.30
2023-01-26T08:26:14.861Z,6.43
2023-01-26T08:28:43.434Z,6.87
2023-01-26T08:31:17.902Z,7.00
2023-01-26T08:33:47.330Z,6.53
2023-01-26T08:36:16.952Z,7.63
2023-01-26T08:38:45.698Z,7.73
2023-01-26T08:41:15.754Z,8.20
2023-01-26T08:43:44.065Z,7.37
2023-01-26T08:46:12.702Z,6.90
2023-01-26T08:48:41.151Z,7.67
2023-01-26T08:51:09.802Z,6.33
2023-01-26T08:53:39.312Z,5.87
2023-01-26T08:56:11.044Z,6.00
2023-01-26T08:58:41.239Z,6.97
2023-01-26T09:01:12.799Z,6.97
2023-01-26T09:03:41.393Z,5.63
2023-01-26T09:06:12.245Z,5.07
2023-01-26T09:08:40.561Z,5.50
2023-01-26T09:11:10.186Z,5.40
2023-01-26T09:13:40.146Z,5.23
2023-01-26T09:16:20.755Z,5.60
2023-01-26T09:18:51.530Z,5.30
2023-01-26T09:21:20.592Z,5.13
2023-01-26T09:23:49.031Z,5.27
2023-01-26T09:26:17.417Z,5.80
2023-01-26T09:28:51.430Z,4.73
2023-01-26T09:31:20.277Z,5.23
2023-01-26T09:33:50.250Z,5.23
2023-01-26T09:36:18.952Z,4.97
2023-01-26T09:38:47.403Z,5.43
2023-01-26T09:41:36.435Z,5.17
2023-01-26T09:44:10.825Z,5.90
2023-01-26T09:46:56.159Z,6.07
2023-01-26T09:49:32.108Z,5.47
2023-01-26T09:52:07.441Z,6.17
2023-01-26T09:54:41.450Z,6.03
2023-01-26T09:57:15.515Z,6.03
2023-01-26T09:59:52.045Z,6.70
2023-01-26T10:02:34.520Z,6.90
2023-01-26T10:05:09.542Z,6.33
2023-01-26T10:07:38.109Z,6.90
2023-01-26T10:10:07.924Z,6.43
2023-01-26T10:12:37.700Z,6.47
2023-01-26T10:15:19.939Z,6.93
2023-01-26T10:17:49.750Z,6.67
2023-01-26T10:20:30.098Z,6.20
2023-01-26T10:23:02.771Z,5.40
2023-01-26T10:25:36.565Z,7.07
2023-01-26T10:28:15.206Z,6.77
2023-01-26T10:30:47.538Z,8.10
2023-01-26T10:33:20.278Z,5.30
2023-01-26T10:35:48.852Z,6.63
2023-01-26T10:38:43.367Z,5.60
2023-01-26T10:41:27.887Z,5.10
2023-01-26T10:44:00.132Z,8.23
2023-01-26T10:46:36.284Z,7.27
2023-01-26T10:49:17.468Z,5.67
2023-01-26T10:51:47.925Z,6.40
2023-01-26T10:54:25.068Z,6.63
2023-01-26T10:56:57.184Z,19.10
2023-01-26T10:59:33.942Z,13.83
2023-01-26T11:02:22.654Z,9.23
2023-01-26T11:05:19.919Z,8.57
2023-01-26T11:07:50.636Z,8.03
2023-01-26T11:10:27.326Z,9.93
2023-01-26T11:13:13.005Z,9.17
2023-01-26T11:15:44.027Z,8.97
2023-01-26T11:18:23.946Z,9.70
2023-01-26T11:20:59.102Z,7.77
2023-01-26T11:23:44.262Z,7.80
2023-01-26T11:26:46.567Z,6.90
2023-01-26T11:29:41.518Z,6.80
2023-01-26T11:32:18.811Z,6.87
2023-01-26T11:35:03.629Z,7.00
2023-01-26T11:37:44.482Z,5.97
2023-01-26T11:40:33.427Z,7.40
2023-01-26T11:43:28.952Z,6.57
2023-01-26T11:46:16.493Z,8.27
2023-01-26T11:48:56.048Z,8.60
2023-01-26T11:51:40.993Z,8.00
2023-01-26T11:54:36.223Z,7.97
2023-01-26T11:57:14.834Z,8.30
2023-01-26T11:59:49.542Z,8.00
2023-01-26T12:02:30.464Z,7.53
2023-01-26T12:05:03.447Z,8.93
2023-01-26T12:07:51.458Z,8.10
2023-01-26T12:10:25.957Z,8.70
2023-01-26T12:13:01.432Z,8.20
2023-01-26T12:15:35.508Z,7.67
2023-01-26T12:18:15.421Z,10.33
2023-01-26T12:20:47.833Z,9.10
2023-01-26T12:23:38.631Z,9.27
2023-01-26T12:26:14.826Z,8.97
2023-01-26T12:28:48.482Z,9.57
2023-01-26T12:31:23.318Z,9.17
2023-01-26T12:33:56.252Z,9.03
2023-01-26T12:36:39.921Z,8.60
2023-01-26T12:39:14.658Z,8.37
2023-01-26T12:42:14.069Z,8.00
2023-01-26T12:44:45.135Z,7.57
2023-01-26T12:47:24.049Z,7.87
2023-01-26T12:50:00.221Z,8.53
2023-01-26T12:52:34.797Z,8.03
2023-01-26T12:55:14.321Z,7.50
2023-01-26T12:57:49.654Z,7.70
2023-01-26T13:00:25.453Z,8.80
2023-01-26T13:02:58.915Z,8.53
2023-01-26T13:05:31.364Z,7.93
2023-01-26T13:07:59.836Z,7.57
2023-01-26T13:10:47.509Z,6.70
2023-01-26T13:13:32.692Z,5.90
2023-01-26T13:16:34.385Z,6.33
2023-01-26T13:19:04.278Z,5.83
2023-01-26T13:21:45.808Z,5.97
2023-01-26T13:24:47.100Z,5.40
2023-01-26T13:27:33.439Z,6.33
2023-01-26T13:30:02.708Z,5.37
2023-01-26T13:33:17.645Z,5.50
2023-01-26T13:35:47.584Z,5.33
2023-01-26T13:38:29.123Z,5.60
2023-01-26T13:40:59.045Z,5.33
2023-01-26T13:43:39.279Z,5.10
2023-01-26T13:46:16.714Z,5.90
2023-01-26T13:48:48.627Z,5.30
2023-01-26T13:51:23.754Z,5.57
2023-01-26T13:54:01.394Z,5.50
2023-01-26T13:56:33.494Z,5.43
2023-01-26T13:59:15.639Z,5.00
2023-01-26T14:01:46.417Z,5.53
2023-01-26T14:04:22.424Z,4.90
2023-01-26T14:06:57.416Z,6.20
2023-01-26T14:09:28.588Z,5.80
2023-01-26T14:12:00.865Z,9.97
2023-01-26T14:14:34.104Z,6.10
2023-01-26T14:17:09.445Z,6.13
2023-01-26T14:19:42.614Z,6.43
2023-01-26T14:22:15.618Z,5.93
2023-01-26T14:24:44.222Z,5.27
2023-01-26T14:27:31.929Z,4.13
2023-01-26T14:30:02.172Z,4.43
2023-01-26T14:32:32.085Z,5.77
2023-01-26T14:35:04.537Z,6.03
2023-01-26T14:37:32.882Z,5.50
2023-01-26T14:40:28.336Z,5.40
2023-01-26T14:42:57.482Z,5.00
2023-01-26T14:45:31.886Z,5.20
2023-01-26T14:48:04.968Z,5.47
2023-01-26T14:50:33.861Z,5.43
2023-01-26T14:53:04.597Z,5.27
2023-01-26T14:55:36.326Z,5.30
2023-01-26T14:58:16.810Z,5.93
2023-01-26T15:00:50.159Z,6.00
2023-01-26T15:03:26.810Z,5.77
2023-01-26T15:06:23.484Z,8.03
2023-01-26T15:09:01.978Z,6.93
2023-01-26T15:11:58.508Z,7.40
2023-01-26T15:14:39.089Z,7.20
2023-01-26T15:17:08.787Z,6.70
2023-01-26T15:19:42.628Z,6.23
2023-01-26T15:22:22.735Z,5.70
2023-01-26T15:25:05.930Z,5.90
2023-01-26T15:27:36.929Z,6.07
2023-01-26T15:30:08.038Z,5.50
2023-01-26T15:32:41.700Z,5.77
2023-01-26T15:35:22.831Z,6.77
2023-01-26T15:38:01.032Z,5.60
2023-01-26T15:40:30.514Z,5.93
2023-01-26T15:43:22.760Z,6.67
2023-01-26T15:45:54.258Z,6.03
2023-01-26T15:48:25.549Z,7.17
2023-01-26T15:50:57.209Z,7.50
2023-01-26T15:53:25.635Z,6.53
2023-01-26T15:55:55.985Z,6.73
2023-01-26T15:58:25.380Z,8.80
2023-01-26T16:00:54.336Z,7.10
2023-01-26T16:03:24.069Z,6.93
2023-01-26T16:05:52.465Z,7.50
2023-01-26T16:08:21.938Z,7.13
2023-01-26T16:10:50.428Z,6.07
2023-01-26T16:13:25.517Z,9.40
2023-01-26T16:15:55.236Z,7.97
2023-01-26T16:18:25.053Z,7.50
2023-01-26T16:20:53.360Z,7.20
2023-01-26T16:23:25.482Z,6.63
2023-01-26T16:25:54.347Z,9.20
2023-01-26T16:28:23.517Z,7.93
2023-01-26T16:30:52.355Z,9.07
2023-01-26T16:33:22.030Z,9.50
2023-01-26T16:35:51.875Z,10.67
2023-01-26T16:38:20.316Z,10.23
2023-01-26T16:40:50.589Z,9.77
2023-01-26T16:43:23.954Z,9.97
2023-01-26T16:45:53.061Z,10.53
2023-01-26T16:48:22.464Z,10.93
2023-01-26T16:50:54.785Z,9.87
2023-01-26T16:53:28.998Z,13.33
2023-01-26T16:55:57.830Z,11.77
2023-01-26T16:58:26.706Z,10.17
2023-01-26T17:00:55.780Z,13.27
2023-01-26T17:03:24.959Z,11.17
2023-01-26T17:05:57.490Z,10.53
2023-01-26T17:08:25.887Z,9.73
2023-01-26T17:11:02.002Z,9.27
2023-01-26T17:13:31.587Z,9.30
2023-01-26T17:16:00.381Z,10.00
2023-01-26T17:18:28.789Z,11.30
2023-01-26T17:21:04.845Z,9.23
2023-01-26T17:23:33.201Z,10.70
2023-01-26T17:26:01.914Z,9.40
2023-01-26T17:28:30.687Z,8.53
2023-01-26T17:31:01.234Z,9.43
2023-01-26T17:33:30.627Z,8.30
2023-01-26T17:36:04.643Z,8.83
2023-01-26T17:38:53.191Z,9.30
2023-01-26T17:41:21.593Z,7.50
2023-01-26T17:43:51.315Z,8.20
2023-01-26T17:46:21.588Z,7.87
2023-01-26T17:48:51.268Z,8.73
2023-01-26T17:51:23.203Z,8.63
2023-01-26T17:53:51.628Z,7.90
2023-01-26T17:56:22.162Z,7.80
2023-01-26T17:58:51.985Z,7.70
2023-01-26T18:01:21.784Z,7.40
2023-01-26T18:03:50.661Z,6.97
2023-01-26T18:06:20.691Z,7.17
2023-01-26T18:08:49.190Z,7.87
2023-01-26T18:11:18.449Z,7.90
2023-01-26T18:13:46.824Z,11.50
2023-01-26T18:16:18.754Z,9.03
2023-01-26T18:18:48.705Z,8.27
2023-01-26T18:21:22.626Z,8.93
2023-01-26T18:23:53.158Z,9.50
2023-01-26T18:26:24.141Z,8.60
2023-01-26T18:28:52.977Z,8.47
2023-01-26T18:31:24.198Z,8.33
2023-01-26T18:33:53.376Z,8.00
2023-01-26T18:36:23.395Z,9.20
2023-01-26T18:38:54.258Z,8.73
2023-01-26T18:41:24.304Z,8.67
2023-01-26T18:43:54.614Z,8.47
2023-01-26T18:46:24.219Z,8.27
2023-01-26T18:48:54.922Z,8.83
2023-01-26T18:51:24.625Z,8.77
2023-01-26T18:53:52.967Z,9.27
2023-01-26T18:56:21.321Z,8.40
2023-01-26T18:58:52.612Z,9.23
2023-01-26T19:01:22.100Z,10.20
2023-01-26T19:03:55.684Z,8.70
2023-01-26T19:06:28.336Z,8.87
2023-01-26T19:09:00.693Z,10.20
2023-01-26T19:11:30.964Z,11.63
2023-01-26T19:13:59.944Z,10.10
2023-01-26T19:16:32.541Z,11.70
2023-01-26T19:19:03.562Z,11.63
2023-01-26T19:21:34.152Z,8.97
2023-01-26T19:24:06.493Z,10.60
2023-01-26T19:26:35.708Z,13.07
2023-01-26T19:29:04.280Z,12.43
2023-01-26T19:31:33.593Z,11.63
2023-01-26T19:34:04.360Z,11.50
2023-01-26T19:36:48.492Z,11.40
2023-01-26T19:39:16.833Z,10.90
2023-01-26T19:41:46.317Z,10.80
2023-01-26T19:44:14.657Z,11.93
2023-01-26T19:46:42.920Z,12.20
2023-01-26T19:49:13.065Z,10.83
2023-01-26T19:51:42.741Z,10.43
2023-01-26T19:54:11.208Z,11.33
2023-01-26T19:56:39.524Z,11.37
2023-01-26T19:59:11.505Z,11.90
2023-01-26T20:01:40.655Z,12.33
2023-01-26T20:04:13.076Z,11.70
2023-01-26T20:06:43.018Z,11.10
2023-01-26T20:09:11.381Z,12.60
2023-01-26T20:11:39.757Z,10.80
2023-01-26T20:14:09.630Z,12.07
2023-01-26T20:16:38.313Z,13.03
2023-01-26T20:19:06.683Z,12.27
2023-01-26T20:21:35.505Z,11.00
2023-01-26T20:24:06.711Z,12.17
2023-01-26T20:26:36.430Z,11.33
2023-01-26T20:29:05.083Z,11.67
2023-01-26T20:31:33.969Z,10.40
2023-01-26T20:34:02.716Z,11.30
2023-01-26T20:36:31.375Z,11.70
2023-01-26T20:38:59.675Z,12.23
2023-01-26T20:41:32.260Z,10.77
2023-01-26T20:44:03.265Z,10.50
2023-01-26T20:46:34.373Z,10.47
2023-01-26T20:49:03.430Z,11.63
2023-01-26T20:51:35.823Z,11.43
2023-01-26T20:54:07.313Z,11.63
2023-01-26T20:56:37.644Z,9.80
2023-01-26T20:59:07.815Z,10.33
2023-01-26T21:01:36.615Z,9.97
2023-01-26T21:04:06.666Z,10.70
2023-01-26T21:06:35.711Z,12.30
2023-01-26T21:09:05.419Z,11.80
2023-01-26T21:11:35.917Z,10.93
2023-01-26T21:14:04.902Z,10.93
2023-01-26T21:16:36.033Z,10.40
2023-01-26T21:19:04.741Z,10.93
2023-01-26T21:21:33.332Z,9.67
2023-01-26T21:24:01.688Z,10.67
2023-01-26T21:26:30.080Z,10.20
2023-01-26T21:29:01.125Z,9.90
2023-01-26T21:31:31.791Z,11.30
2023-01-26T21:34:01.041Z,10.87
2023-01-26T21:36:31.841Z,10.83
2023-01-26T21:39:01.786Z,9.90
2023-01-26T21:41:50.034Z,11.47
2023-01-26T21:44:22.344Z,11.00
2023-01-26T21:46:53.352Z,11.13
2023-01-26T21:49:22.523Z,12.27
2023-01-26T21:52:09.044Z,12.03
2023-01-26T21:54:37.624Z,13.10
2023-01-26T21:57:28.694Z,16.17
2023-01-26T21:59:57.397Z,13.13
2023-01-26T22:02:25.713Z,15.90
2023-01-26T22:04:54.001Z,16.47
2023-01-26T22:07:22.303Z,15.07
2023-01-26T22:09:50.593Z,14.97
2023-01-26T22:12:18.876Z,16.70
2023-01-26T22:14:47.211Z,14.50
2023-01-26T22:17:17.100Z,14.63
2023-01-26T22:19:45.456Z,14.87
2023-01-26T22:22:13.745Z,14.27
2023-01-26T22:24:42.101Z,13.47
2023-01-26T22:27:10.433Z,14.37
2023-01-26T22:29:38.748Z,13.13
2023-01-26T22:32:07.360Z,13.43
2023-01-26T22:34:37.056Z,13.33
2023-01-26T22:37:06.033Z,12.53
2023-01-26T22:39:34.325Z,14.43
2023-01-26T22:42:02.603Z,13.20
2023-01-26T22:44:30.933Z,12.83
2023-01-26T22:46:59.264Z,13.27
2023-01-26T22:49:27.541Z,14.00
2023-01-26T22:51:57.252Z,11.90
2023-01-26T22:54:26.080Z,11.93
2023-01-26T22:56:54.519Z,12.47
2023-01-26T22:59:22.942Z,11.97
2023-01-26T23:01:51.263Z,12.80
2023-01-26T23:04:19.800Z,13.70
2023-01-26T23:06:48.134Z,14.83
2023-01-26T23:09:17.855Z,13.40
2023-01-26T23:12:01.474Z,13.83
2023-01-26T23:14:30.324Z,13.00
2023-01-26T23:16:59.669Z,13.60
2023-01-26T23:19:30.053Z,13.37
2023-01-26T23:21:58.305Z,14.47
2023-01-26T23:24:28.210Z,14.17
2023-01-26T23:26:56.540Z,13.67
2023-01-26T23:29:25.111Z,13.77
2023-01-26T23:31:53.482Z,14.60
2023-01-26T23:34:21.913Z,14.13
2023-01-26T23:36:50.271Z,13.27
2023-01-26T23:39:18.869Z,13.50
2023-01-26T23:41:48.592Z,13.43
2023-01-26T23:44:16.890Z,13.93
2023-01-26T23:46:45.284Z,14.90
2023-01-26T23:49:13.668Z,13.17
2023-01-26T23:51:41.979Z,13.50
2023-01-26T23:54:10.291Z,13.47
2023-01-26T23:56:38.648Z,14.13
2023-01-26T23:59:08.335Z,14.57
